createdAt,value
2023-01-23T00:04:17.397Z,60.66
2023-01-23T00:09:19.257Z,60.62
2023-01-23T00:14:21.141Z,60.89
2023-01-23T00:19:22.982Z,60.79
2023-01-23T00:24:24.797Z,60.23
2023-01-23T00:29:26.705Z,60.19
2023-01-23T00:34:29.341Z,60.39
2023-01-23T00:39:31.257Z,60.83
2023-01-23T00:44:33.315Z,60.17
2023-01-23T00:49:35.229Z,60.78
2023-01-23T00:54:38.355Z,60.59
2023-01-23T00:59:40.416Z,60.31
2023-01-23T01:04:42.246Z,60.28
2023-01-23T01:09:44.220Z,60.49
2023-01-23T01:14:46.082Z,60.06
2023-01-23T01:19:50.157Z,60.23
2023-01-23T01:24:52.018Z,60.51
2023-01-23T01:29:54.117Z,60.49
2023-01-23T01:34:55.965Z,60.70
2023-01-23T01:39:57.790Z,60.69
2023-01-23T01:45:01.828Z,61.05
2023-01-23T01:50:06.940Z,60.67
2023-01-23T01:55:08.940Z,61.07
2023-01-23T02:00:18.845Z,60.63
2023-01-23T02:05:32.231Z,60.84
2023-01-23T02:10:36.349Z,60.56
2023-01-23T02:15:39.646Z,60.61
2023-01-23T02:20:41.655Z,60.84
2023-01-23T02:25:43.607Z,60.21
2023-01-23T02:30:47.655Z,61.01
2023-01-23T02:35:49.774Z,60.93
2023-01-23T02:40:52.758Z,60.81
2023-01-23T02:45:57.641Z,60.47
2023-01-23T02:50:59.744Z,60.82
2023-01-23T02:56:01.863Z,60.49
2023-01-23T03:01:04.732Z,60.70
2023-01-23T03:06:06.913Z,60.87
2023-01-23T03:11:08.955Z,60.72
2023-01-23T03:16:10.944Z,60.70
2023-01-23T03:21:13.332Z,60.47
2023-01-23T03:26:18.131Z,61.13
2023-01-23T03:31:21.961Z,60.99
2023-01-23T03:36:24.007Z,60.46
2023-01-23T03:41:26.186Z,60.94
2023-01-23T03:46:32.016Z,60.83
2023-01-23T03:51:34.253Z,60.73
2023-01-23T03:56:36.929Z,60.54
2023-01-23T04:01:41.923Z,60.57
2023-01-23T04:06:44.127Z,60.56
2023-01-23T04:11:46.019Z,60.65
2023-01-23T04:16:48.087Z,61.23
2023-01-23T04:21:50.555Z,60.80
2023-01-23T04:26:53.098Z,60.73
2023-01-23T04:31:55.106Z,61.30
2023-01-23T04:36:57.339Z,61.16
2023-01-23T04:41:59.882Z,61.24
2023-01-23T04:47:12.412Z,61.41
2023-01-23T04:52:15.119Z,60.85
2023-01-23T04:57:25.705Z,61.03
2023-01-23T05:02:33.615Z,61.34
2023-01-23T05:07:36.309Z,61.37
2023-01-23T05:12:42.074Z,60.99
2023-01-23T05:17:44.319Z,60.97
2023-01-23T05:22:52.920Z,60.76
2023-01-23T05:28:00.492Z,60.59
2023-01-23T05:33:02.383Z,61.20
2023-01-23T05:38:04.393Z,60.71
2023-01-23T05:43:06.940Z,60.53
2023-01-23T05:48:28.015Z,61.32
2023-01-23T05:53:30.663Z,61.03
2023-01-23T05:58:32.593Z,60.65
2023-01-23T06:03:56.134Z,60.82
2023-01-23T06:09:11.793Z,60.88
2023-01-23T06:14:13.629Z,60.59
2023-01-23T06:19:16.292Z,60.98
2023-01-23T06:24:18.188Z,60.96
2023-01-23T06:29:21.164Z,60.73
2023-01-23T06:34:23.102Z,61.00
2023-01-23T06:39:31.682Z,60.99
2023-01-23T06:44:34.860Z,61.35
2023-01-23T06:49:37.099Z,61.01
2023-01-23T06:54:39.061Z,60.92
2023-01-23T06:59:41.794Z,60.31
2023-01-23T07:04:45.730Z,61.04
2023-01-23T07:09:48.325Z,61.24
2023-01-23T07:14:56.546Z,60.60
2023-01-23T07:20:05.479Z,61.39
2023-01-23T07:25:10.562Z,60.99
2023-01-23T07:30:13.997Z,61.00
2023-01-23T07:35:15.929Z,60.62
2023-01-23T07:40:18.852Z,60.77
2023-01-23T07:45:20.968Z,60.95
2023-01-23T07:50:23.088Z,60.58
2023-01-23T07:55:25.143Z,60.96
2023-01-23T08:00:29.524Z,60.46
2023-01-23T08:05:31.671Z,60.78
2023-01-23T08:10:33.484Z,61.11
2023-01-23T08:15:37.422Z,60.80
2023-01-23T08:20:39.308Z,61.07
2023-01-23T08:25:41.159Z,60.45
2023-01-23T08:30:43.020Z,60.39
2023-01-23T08:35:58.296Z,60.61
2023-01-23T08:41:01.915Z,60.60
2023-01-23T08:46:04.600Z,60.99
2023-01-23T08:51:09.575Z,60.58
2023-01-23T08:56:17.273Z,60.95
2023-01-23T09:01:22.156Z,60.55
2023-01-23T09:06:24.079Z,60.64
2023-01-23T09:11:26.086Z,60.43
2023-01-23T09:16:28.018Z,60.85
2023-01-23T09:21:29.911Z,60.95
2023-01-23T09:26:31.718Z,60.42
2023-01-23T09:31:33.621Z,60.61
2023-01-23T09:36:42.935Z,61.01
2023-01-23T09:41:46.107Z,60.69
2023-01-23T09:46:52.557Z,61.25
2023-01-23T09:51:57.459Z,60.80
2023-01-23T09:57:03.731Z,61.06
2023-01-23T10:02:20.242Z,60.53
2023-01-23T10:07:52.687Z,61.12
2023-01-23T10:13:16.669Z,61.02
2023-01-23T10:18:29.922Z,60.77
2023-01-23T10:23:37.599Z,61.37
2023-01-23T10:28:40.350Z,60.78
2023-01-23T10:33:54.376Z,61.28
2023-01-23T10:39:10.067Z,60.93
2023-01-23T10:44:20.927Z,60.86
2023-01-23T10:49:35.562Z,61.06
2023-01-23T10:54:47.210Z,60.69
2023-01-23T10:59:54.119Z,61.36
2023-01-23T11:04:56.366Z,60.85
2023-01-23T11:09:59.532Z,61.22
2023-01-23T11:15:13.589Z,60.91
2023-01-23T11:20:52.731Z,60.79
2023-01-23T11:25:55.649Z,61.10
2023-01-23T11:31:15.187Z,60.81
2023-01-23T11:36:17.490Z,60.84
2023-01-23T11:41:21.708Z,60.82
2023-01-23T11:46:42.512Z,60.84
2023-01-23T11:51:53.398Z,61.05
2023-01-23T11:57:15.439Z,61.25
2023-01-23T12:02:26.704Z,60.72
2023-01-23T12:07:28.873Z,60.31
2023-01-23T12:12:53.490Z,60.62
2023-01-23T12:18:07.319Z,60.51
2023-01-23T12:23:19.439Z,60.65
2023-01-23T12:28:36.332Z,61.06
2023-01-23T12:34:12.742Z,60.64
2023-01-23T12:39:26.780Z,60.37
2023-01-23T12:44:37.268Z,61.29
2023-01-23T12:50:07.778Z,60.72
2023-01-23T12:55:21.231Z,60.76
2023-01-23T13:00:44.801Z,60.78
2023-01-23T13:06:00.135Z,61.11
2023-01-23T13:11:35.163Z,61.15
2023-01-23T13:16:48.164Z,61.19
2023-01-23T13:22:27.807Z,61.12
2023-01-23T13:27:55.909Z,60.63
2023-01-23T13:33:04.150Z,60.93
2023-01-23T13:38:30.733Z,61.13
2023-01-23T13:43:51.054Z,60.82
2023-01-23T14:22:43.806Z,60.98
2023-01-23T14:27:54.397Z,60.99
2023-01-23T14:32:56.711Z,60.70
2023-01-23T14:38:02.429Z,60.91
2023-01-23T14:43:08.089Z,61.25
2023-01-23T14:48:16.472Z,60.68
2023-01-23T14:53:18.445Z,60.34
2023-01-23T14:58:24.813Z,60.80
2023-01-23T15:03:44.773Z,60.41
2023-01-23T15:08:47.292Z,60.99
2023-01-23T15:13:52.806Z,61.17
2023-01-23T15:19:00.342Z,61.05
2023-01-23T15:24:14.515Z,61.40
2023-01-23T15:29:19.702Z,60.57
2023-01-23T15:34:34.106Z,61.04
2023-01-23T15:39:46.737Z,61.48
2023-01-23T15:44:48.699Z,60.83
2023-01-23T15:49:50.533Z,60.86
2023-01-23T15:54:58.812Z,61.20
2023-01-23T16:00:01.382Z,61.44
2023-01-23T16:05:03.613Z,61.35
2023-01-23T16:10:28.737Z,60.97
2023-01-23T16:15:33.639Z,60.76
2023-01-23T16:20:38.945Z,60.88
2023-01-23T16:25:44.903Z,61.45
2023-01-23T16:30:48.488Z,61.32
2023-01-23T16:35:51.595Z,61.39
2023-01-23T16:40:54.691Z,61.31
2023-01-23T16:45:57.784Z,61.57
2023-01-23T16:51:08.646Z,60.91
2023-01-23T16:56:21.581Z,61.47
2023-01-23T17:01:24.218Z,61.03
2023-01-23T17:06:27.040Z,61.62
2023-01-23T17:11:50.553Z,61.18
2023-01-23T17:16:54.033Z,61.19
2023-01-23T17:21:56.998Z,61.70
2023-01-23T17:26:58.878Z,61.79
2023-01-23T17:32:00.834Z,61.67
2023-01-23T17:37:03.050Z,61.42
2023-01-23T17:42:04.951Z,60.97
2023-01-23T17:47:10.461Z,61.63
2023-01-23T17:52:12.389Z,61.08
2023-01-23T17:57:15.204Z,61.54
2023-01-23T18:02:28.702Z,61.50
2023-01-23T18:07:30.847Z,61.36
2023-01-23T18:12:57.075Z,61.36
2023-01-23T18:18:04.794Z,61.30
2023-01-23T18:23:11.076Z,60.93
2023-01-23T18:28:21.640Z,61.04
2023-01-23T18:33:35.690Z,61.70
2023-01-23T18:39:02.722Z,61.70
2023-01-23T18:44:16.327Z,61.09
2023-01-23T18:49:32.000Z,61.73
2023-01-23T18:55:18.174Z,61.75
2023-01-23T19:00:32.273Z,61.42
2023-01-23T19:05:35.157Z,61.32
2023-01-23T19:10:48.762Z,61.53
2023-01-23T19:16:03.186Z,61.03
2023-01-23T19:21:17.254Z,61.12
2023-01-23T19:26:19.748Z,61.29
2023-01-23T19:31:24.705Z,61.49
2023-01-23T19:36:29.316Z,61.85
2023-01-23T19:41:46.997Z,61.59
2023-01-23T19:46:48.881Z,60.98
2023-01-23T19:51:51.147Z,61.53
2023-01-23T19:56:53.457Z,61.92
2023-01-23T20:01:55.864Z,61.74
2023-01-23T20:06:58.760Z,61.62
2023-01-23T20:12:02.384Z,61.26
2023-01-23T20:17:04.703Z,61.69
2023-01-23T20:22:07.405Z,61.05
2023-01-23T20:27:09.814Z,61.23
2023-01-23T20:32:11.981Z,61.52
2023-01-23T20:37:14.206Z,61.44
2023-01-23T20:42:16.184Z,61.54
2023-01-23T20:47:18.059Z,61.19
2023-01-23T20:52:38.679Z,61.45
2023-01-23T20:57:59.370Z,61.39
2023-01-23T21:03:01.305Z,61.25
2023-01-23T21:08:03.242Z,61.50
2023-01-23T21:13:05.151Z,61.37
2023-01-23T21:18:06.995Z,61.84
2023-01-23T21:23:08.941Z,61.87
2023-01-23T21:28:10.943Z,61.61
2023-01-23T21:33:12.790Z,61.76
2023-01-23T21:38:14.628Z,61.78
2023-01-23T21:43:16.449Z,61.21
2023-01-23T21:48:18.328Z,61.65
2023-01-23T21:53:20.154Z,61.08
2023-01-23T21:58:21.936Z,61.29
2023-01-23T22:03:23.894Z,61.62
2023-01-23T22:08:25.710Z,61.60
2023-01-23T22:13:27.565Z,61.48
2023-01-23T22:18:30.313Z,61.64
2023-01-23T22:23:32.937Z,61.29
2023-01-23T22:28:35.336Z,62.02
2023-01-23T22:33:42.260Z,61.56
2023-01-23T22:38:45.320Z,61.63
2023-01-23T22:43:47.331Z,61.63
2023-01-23T22:48:49.852Z,61.33
2023-01-23T22:53:53.076Z,61.27
2023-01-23T22:58:57.054Z,61.67
2023-01-23T23:04:00.382Z,61.36
2023-01-23T23:09:02.624Z,61.72
2023-01-23T23:14:04.605Z,61.30
2023-01-23T23:19:06.872Z,61.16
2023-01-23T23:24:12.673Z,61.53
2023-01-23T23:29:15.944Z,60.96
2023-01-23T23:34:19.260Z,61.02
2023-01-23T23:39:21.188Z,61.08
2023-01-23T23:44:23.119Z,61.55
2023-01-23T23:49:26.535Z,61.57
2023-01-23T23:54:28.644Z,61.51
2023-01-23T23:59:30.754Z,61.85
